Kezdőlap
METAR-TAF:

METAR-TAF

Repülőterek :

Independence, Kansas, Amerikai Egyesült Államok

földrajzi szélesség: 37-09-30N, földrajzi hosszúság: 095-46-42W, magasság: 251 m

Jelenlegi meteorológiai megfigyelések

A jelentés 28 perccel ezelõtt készült, 02:15 UTC
Dél-délkeleti szél 9 kt
Hőmérséklet 27°C
Páratartalom 66%
Légköri nyomás 1017 hPa
Látótávolság: 16.1 km
Derült ég

METAR: KIDP 220215Z AUTO 16009KT 10SM CLR 27/20 A3003 RMK AO2 T02740200

Idő: 21:43 (02:43 UTC)


TAF: hiányzik

Meteorológiai megfigyelések és előrejelzések több, mint 4000 repülőtéren (METAR és TAF jelentéseket).

A térképen piros és sárga pontok jelzik az elérhető meteorológiai állomásokat.

Mozgassa az egeret a pont fölött, hogy megjelenjen az állomás neve.

Azután kattintson az időjárási megfigyelések és előrejelzések megtekintéséhez.

A térkép megváltoztatása: kattintson a fekete keresztel jelölt zöld gombra ráközelítéshez, a vonallal jelölt zöld gombra távolításhoz, vagy a zöld nyilakra a szomszédos térképek eléréséhez.


METAR-TAF: